sensor_id;sensor_type;location;lat;lon;timestamp;P1;durP1;ratioP1;P2;durP2;ratioP2
61903;SDS011;47857;52.270;6.804;2024-02-14T00:01:31;10.95;;;4.25;;
61903;SDS011;47857;52.270;6.804;2024-02-14T00:03:56;10.75;;;4.85;;
61903;SDS011;47857;52.270;6.804;2024-02-14T00:06:22;9.27;;;5.13;;
61903;SDS011;47857;52.270;6.804;2024-02-14T00:08:48;8.52;;;4.78;;
61903;SDS011;47857;52.270;6.804;2024-02-14T00:11:14;12.32;;;5.30;;
61903;SDS011;47857;52.270;6.804;2024-02-14T00:13:40;10.43;;;4.40;;
61903;SDS011;47857;52.270;6.804;2024-02-14T00:16:05;11.68;;;5.43;;
61903;SDS011;47857;52.270;6.804;2024-02-14T00:18:31;10.68;;;4.93;;
61903;SDS011;47857;52.270;6.804;2024-02-14T00:20:57;9.98;;;5.20;;
61903;SDS011;47857;52.270;6.804;2024-02-14T00:23:22;9.95;;;5.13;;
61903;SDS011;47857;52.270;6.804;2024-02-14T00:25:48;7.00;;;4.72;;
61903;SDS011;47857;52.270;6.804;2024-02-14T00:28:13;11.73;;;4.95;;
61903;SDS011;47857;52.270;6.804;2024-02-14T00:30:39;8.25;;;5.47;;
61903;SDS011;47857;52.270;6.804;2024-02-14T00:33:04;9.02;;;5.28;;
61903;SDS011;47857;52.270;6.804;2024-02-14T00:35:30;9.35;;;5.30;;
61903;SDS011;47857;52.270;6.804;2024-02-14T00:37:56;13.88;;;5.47;;
61903;SDS011;47857;52.270;6.804;2024-02-14T00:40:21;9.82;;;5.80;;
61903;SDS011;47857;52.270;6.804;2024-02-14T00:42:47;15.15;;;6.38;;
61903;SDS011;47857;52.270;6.804;2024-02-14T00:45:13;9.57;;;5.90;;
61903;SDS011;47857;52.270;6.804;2024-02-14T00:47:39;11.32;;;6.35;;
61903;SDS011;47857;52.270;6.804;2024-02-14T00:50:04;11.98;;;6.05;;
61903;SDS011;47857;52.270;6.804;2024-02-14T00:52:30;13.05;;;6.05;;
61903;SDS011;47857;52.270;6.804;2024-02-14T00:54:56;11.52;;;5.88;;
61903;SDS011;47857;52.270;6.804;2024-02-14T00:57:22;13.48;;;6.18;;
61903;SDS011;47857;52.270;6.804;2024-02-14T00:59:54;10.25;;;5.72;;
61903;SDS011;47857;52.270;6.804;2024-02-14T01:02:21;14.15;;;7.90;;
61903;SDS011;47857;52.270;6.804;2024-02-14T01:04:47;12.05;;;8.50;;
61903;SDS011;47857;52.270;6.804;2024-02-14T01:07:12;15.50;;;9.73;;
61903;SDS011;47857;52.270;6.804;2024-02-14T01:09:38;16.00;;;9.38;;
61903;SDS011;47857;52.270;6.804;2024-02-14T01:12:04;15.35;;;8.10;;
61903;SDS011;47857;52.270;6.804;2024-02-14T01:14:30;10.85;;;6.50;;
61903;SDS011;47857;52.270;6.804;2024-02-14T01:16:56;13.65;;;7.60;;
61903;SDS011;47857;52.270;6.804;2024-02-14T01:19:22;12.43;;;7.68;;
61903;SDS011;47857;52.270;6.804;2024-02-14T01:21:49;13.55;;;7.28;;
61903;SDS011;47857;52.270;6.804;2024-02-14T01:24:15;13.13;;;8.10;;
61903;SDS011;47857;52.270;6.804;2024-02-14T01:26:41;9.95;;;6.72;;
61903;SDS011;47857;52.270;6.804;2024-02-14T01:29:07;10.65;;;6.88;;
61903;SDS011;47857;52.270;6.804;2024-02-14T01:31:33;13.85;;;6.90;;
61903;SDS011;47857;52.270;6.804;2024-02-14T01:33:59;13.80;;;9.15;;
61903;SDS011;47857;52.270;6.804;2024-02-14T01:36:28;14.32;;;9.25;;
61903;SDS011;47857;52.270;6.804;2024-02-14T01:38:54;17.00;;;9.00;;
61903;SDS011;47857;52.270;6.804;2024-02-14T01:41:19;12.15;;;8.43;;
61903;SDS011;47857;52.270;6.804;2024-02-14T01:43:46;13.65;;;9.50;;
61903;SDS011;47857;52.270;6.804;2024-02-14T01:46:12;12.25;;;9.32;;
61903;SDS011;47857;52.270;6.804;2024-02-14T01:48:38;13.60;;;9.90;;
61903;SDS011;47857;52.270;6.804;2024-02-14T01:51:04;16.40;;;9.80;;
61903;SDS011;47857;52.270;6.804;2024-02-14T01:53:32;14.52;;;9.98;;
61903;SDS011;47857;52.270;6.804;2024-02-14T01:55:58;13.15;;;8.80;;
61903;SDS011;47857;52.270;6.804;2024-02-14T01:58:24;10.30;;;7.50;;
61903;SDS011;47857;52.270;6.804;2024-02-14T02:00:51;11.95;;;7.80;;
61903;SDS011;47857;52.270;6.804;2024-02-14T02:03:21;14.25;;;8.20;;
61903;SDS011;47857;52.270;6.804;2024-02-14T02:05:51;12.43;;;7.40;;
61903;SDS011;47857;52.270;6.804;2024-02-14T02:08:17;10.98;;;7.68;;
61903;SDS011;47857;52.270;6.804;2024-02-14T02:10:43;10.45;;;7.72;;
61903;SDS011;47857;52.270;6.804;2024-02-14T02:13:08;9.50;;;6.65;;
61903;SDS011;47857;52.270;6.804;2024-02-14T02:15:34;11.88;;;7.65;;
61903;SDS011;47857;52.270;6.804;2024-02-14T02:18:00;15.18;;;7.85;;
61903;SDS011;47857;52.270;6.804;2024-02-14T02:20:27;11.85;;;8.68;;
61903;SDS011;47857;52.270;6.804;2024-02-14T02:22:53;12.05;;;8.00;;
61903;SDS011;47857;52.270;6.804;2024-02-14T02:25:18;10.77;;;7.65;;
61903;SDS011;47857;52.270;6.804;2024-02-14T02:27:48;9.57;;;6.40;;
61903;SDS011;47857;52.270;6.804;2024-02-14T02:30:14;11.10;;;7.20;;
61903;SDS011;47857;52.270;6.804;2024-02-14T02:32:39;12.25;;;7.30;;
61903;SDS011;47857;52.270;6.804;2024-02-14T02:35:06;13.52;;;6.43;;
61903;SDS011;47857;52.270;6.804;2024-02-14T02:37:32;13.20;;;6.78;;
61903;SDS011;47857;52.270;6.804;2024-02-14T02:39:58;10.93;;;6.95;;
61903;SDS011;47857;52.270;6.804;2024-02-14T02:42:24;8.85;;;6.70;;
61903;SDS011;47857;52.270;6.804;2024-02-14T02:44:50;8.80;;;6.00;;
61903;SDS011;47857;52.270;6.804;2024-02-14T02:47:15;9.55;;;6.60;;
61903;SDS011;47857;52.270;6.804;2024-02-14T02:49:44;13.60;;;6.47;;
61903;SDS011;47857;52.270;6.804;2024-02-14T02:52:10;12.02;;;6.80;;
61903;SDS011;47857;52.270;6.804;2024-02-14T02:54:36;9.85;;;6.72;;
61903;SDS011;47857;52.270;6.804;2024-02-14T02:57:02;8.68;;;6.38;;
61903;SDS011;47857;52.270;6.804;2024-02-14T02:59:30;11.15;;;6.82;;
61903;SDS011;47857;52.270;6.804;2024-02-14T03:01:57;13.02;;;6.90;;
61903;SDS011;47857;52.270;6.804;2024-02-14T03:04:24;10.85;;;7.13;;
61903;SDS011;47857;52.270;6.804;2024-02-14T03:06:49;12.85;;;6.65;;
61903;SDS011;47857;52.270;6.804;2024-02-14T03:09:15;10.98;;;7.07;;
61903;SDS011;47857;52.270;6.804;2024-02-14T03:11:45;12.27;;;7.35;;
61903;SDS011;47857;52.270;6.804;2024-02-14T03:14:12;11.68;;;7.60;;
61903;SDS011;47857;52.270;6.804;2024-02-14T03:16:37;15.82;;;7.63;;
61903;SDS011;47857;52.270;6.804;2024-02-14T03:19:04;13.18;;;7.78;;
61903;SDS011;47857;52.270;6.804;2024-02-14T03:21:30;10.65;;;7.60;;
61903;SDS011;47857;52.270;6.804;2024-02-14T03:23:58;14.43;;;8.45;;
61903;SDS011;47857;52.270;6.804;2024-02-14T03:26:23;12.73;;;8.43;;
61903;SDS011;47857;52.270;6.804;2024-02-14T03:28:49;13.80;;;8.35;;
61903;SDS011;47857;52.270;6.804;2024-02-14T03:31:15;11.65;;;8.30;;
61903;SDS011;47857;52.270;6.804;2024-02-14T03:33:41;12.10;;;8.60;;
61903;SDS011;47857;52.270;6.804;2024-02-14T03:36:08;15.55;;;9.30;;
61903;SDS011;47857;52.270;6.804;2024-02-14T03:38:34;16.08;;;8.43;;
61903;SDS011;47857;52.270;6.804;2024-02-14T03:41:00;12.85;;;8.57;;
61903;SDS011;47857;52.270;6.804;2024-02-14T03:43:25;12.20;;;9.18;;
61903;SDS011;47857;52.270;6.804;2024-02-14T03:45:51;11.80;;;8.52;;
61903;SDS011;47857;52.270;6.804;2024-02-14T03:48:17;14.02;;;8.88;;
61903;SDS011;47857;52.270;6.804;2024-02-14T03:50:42;15.88;;;8.90;;
61903;SDS011;47857;52.270;6.804;2024-02-14T03:53:08;11.35;;;8.15;;
61903;SDS011;47857;52.270;6.804;2024-02-14T03:55:36;15.00;;;8.43;;
61903;SDS011;47857;52.270;6.804;2024-02-14T03:58:03;12.57;;;8.77;;
61903;SDS011;47857;52.270;6.804;2024-02-14T04:00:30;12.05;;;8.40;;
61903;SDS011;47857;52.270;6.804;2024-02-14T04:02:56;12.02;;;8.00;;
61903;SDS011;47857;52.270;6.804;2024-02-14T04:05:27;10.77;;;8.20;;
61903;SDS011;47857;52.270;6.804;2024-02-14T04:07:53;11.82;;;8.25;;
61903;SDS011;47857;52.270;6.804;2024-02-14T04:10:19;12.75;;;7.97;;
61903;SDS011;47857;52.270;6.804;2024-02-14T04:12:46;14.45;;;8.55;;
61903;SDS011;47857;52.270;6.804;2024-02-14T04:15:11;12.70;;;9.13;;
61903;SDS011;47857;52.270;6.804;2024-02-14T04:17:37;13.80;;;8.65;;
61903;SDS011;47857;52.270;6.804;2024-02-14T04:20:04;12.18;;;8.90;;
61903;SDS011;47857;52.270;6.804;2024-02-14T04:22:30;10.77;;;8.43;;
61903;SDS011;47857;52.270;6.804;2024-02-14T04:24:56;14.73;;;8.23;;
61903;SDS011;47857;52.270;6.804;2024-02-14T04:27:21;12.85;;;8.48;;
61903;SDS011;47857;52.270;6.804;2024-02-14T04:29:47;11.20;;;8.13;;
61903;SDS011;47857;52.270;6.804;2024-02-14T04:32:13;10.98;;;7.85;;
61903;SDS011;47857;52.270;6.804;2024-02-14T04:34:39;9.55;;;7.70;;
61903;SDS011;47857;52.270;6.804;2024-02-14T04:37:05;14.35;;;7.75;;
61903;SDS011;47857;52.270;6.804;2024-02-14T04:39:35;12.43;;;7.78;;
61903;SDS011;47857;52.270;6.804;2024-02-14T04:42:01;10.00;;;7.45;;
61903;SDS011;47857;52.270;6.804;2024-02-14T04:44:28;10.05;;;7.22;;
61903;SDS011;47857;52.270;6.804;2024-02-14T04:46:53;13.18;;;7.68;;
61903;SDS011;47857;52.270;6.804;2024-02-14T04:49:19;9.13;;;7.25;;
61903;SDS011;47857;52.270;6.804;2024-02-14T04:51:45;12.95;;;8.23;;
61903;SDS011;47857;52.270;6.804;2024-02-14T04:54:10;10.68;;;7.88;;
61903;SDS011;47857;52.270;6.804;2024-02-14T04:56:36;14.40;;;8.88;;
61903;SDS011;47857;52.270;6.804;2024-02-14T04:59:01;10.18;;;8.23;;
61903;SDS011;47857;52.270;6.804;2024-02-14T05:01:27;10.20;;;8.32;;
61903;SDS011;47857;52.270;6.804;2024-02-14T05:03:53;12.30;;;8.75;;
61903;SDS011;47857;52.270;6.804;2024-02-14T05:06:18;12.55;;;9.20;;
61903;SDS011;47857;52.270;6.804;2024-02-14T05:08:44;14.30;;;9.63;;
61903;SDS011;47857;52.270;6.804;2024-02-14T05:11:09;12.68;;;9.93;;
61903;SDS011;47857;52.270;6.804;2024-02-14T05:13:35;13.07;;;10.00;;
61903;SDS011;47857;52.270;6.804;2024-02-14T05:16:03;15.52;;;10.25;;
61903;SDS011;47857;52.270;6.804;2024-02-14T05:18:29;13.63;;;10.23;;
61903;SDS011;47857;52.270;6.804;2024-02-14T05:20:55;14.98;;;10.60;;
61903;SDS011;47857;52.270;6.804;2024-02-14T05:23:21;14.88;;;11.07;;
61903;SDS011;47857;52.270;6.804;2024-02-14T05:25:46;17.77;;;11.85;;
61903;SDS011;47857;52.270;6.804;2024-02-14T05:28:13;16.73;;;11.82;;
61903;SDS011;47857;52.270;6.804;2024-02-14T05:30:42;19.80;;;13.05;;
61903;SDS011;47857;52.270;6.804;2024-02-14T05:33:08;18.10;;;12.32;;
61903;SDS011;47857;52.270;6.804;2024-02-14T05:35:33;20.15;;;13.73;;
61903;SDS011;47857;52.270;6.804;2024-02-14T05:37:59;18.67;;;13.23;;
61903;SDS011;47857;52.270;6.804;2024-02-14T05:40:24;20.48;;;13.23;;
61903;SDS011;47857;52.270;6.804;2024-02-14T05:42:50;19.80;;;13.90;;
61903;SDS011;47857;52.270;6.804;2024-02-14T05:45:16;23.08;;;14.75;;
61903;SDS011;47857;52.270;6.804;2024-02-14T05:47:42;24.27;;;15.20;;
61903;SDS011;47857;52.270;6.804;2024-02-14T05:50:08;22.40;;;14.45;;
61903;SDS011;47857;52.270;6.804;2024-02-14T05:52:34;22.58;;;15.70;;
61903;SDS011;47857;52.270;6.804;2024-02-14T05:54:59;26.35;;;15.75;;
61903;SDS011;47857;52.270;6.804;2024-02-14T05:57:25;25.13;;;15.68;;
61903;SDS011;47857;52.270;6.804;2024-02-14T05:59:51;25.33;;;15.63;;
61903;SDS011;47857;52.270;6.804;2024-02-14T06:02:17;24.35;;;15.65;;
61903;SDS011;47857;52.270;6.804;2024-02-14T06:04:42;26.00;;;16.33;;
61903;SDS011;47857;52.270;6.804;2024-02-14T06:07:08;28.77;;;17.50;;
61903;SDS011;47857;52.270;6.804;2024-02-14T06:09:36;25.92;;;15.80;;
61903;SDS011;47857;52.270;6.804;2024-02-14T06:12:01;26.13;;;16.23;;
61903;SDS011;47857;52.270;6.804;2024-02-14T06:14:27;26.90;;;15.93;;
61903;SDS011;47857;52.270;6.804;2024-02-14T06:16:55;28.33;;;16.80;;
61903;SDS011;47857;52.270;6.804;2024-02-14T06:19:22;25.77;;;16.67;;
61903;SDS011;47857;52.270;6.804;2024-02-14T06:21:50;25.77;;;16.27;;
61903;SDS011;47857;52.270;6.804;2024-02-14T06:24:15;23.45;;;16.25;;
61903;SDS011;47857;52.270;6.804;2024-02-14T06:26:42;26.55;;;16.55;;
61903;SDS011;47857;52.270;6.804;2024-02-14T06:29:08;28.77;;;17.30;;
61903;SDS011;47857;52.270;6.804;2024-02-14T06:31:33;26.33;;;16.23;;
61903;SDS011;47857;52.270;6.804;2024-02-14T06:33:59;24.33;;;16.30;;
61903;SDS011;47857;52.270;6.804;2024-02-14T06:36:24;24.63;;;16.20;;
61903;SDS011;47857;52.270;6.804;2024-02-14T06:38:50;26.63;;;16.52;;
61903;SDS011;47857;52.270;6.804;2024-02-14T06:41:16;30.25;;;18.17;;
61903;SDS011;47857;52.270;6.804;2024-02-14T06:43:41;25.30;;;16.90;;
61903;SDS011;47857;52.270;6.804;2024-02-14T06:46:07;26.83;;;17.85;;
61903;SDS011;47857;52.270;6.804;2024-02-14T06:48:32;26.13;;;17.52;;
61903;SDS011;47857;52.270;6.804;2024-02-14T06:50:59;30.73;;;18.27;;
61903;SDS011;47857;52.270;6.804;2024-02-14T06:53:24;23.67;;;16.88;;
61903;SDS011;47857;52.270;6.804;2024-02-14T06:55:50;26.38;;;17.00;;
61903;SDS011;47857;52.270;6.804;2024-02-14T06:58:15;29.00;;;17.10;;
61903;SDS011;47857;52.270;6.804;2024-02-14T07:00:41;29.23;;;16.67;;
61903;SDS011;47857;52.270;6.804;2024-02-14T07:03:06;27.10;;;17.38;;
61903;SDS011;47857;52.270;6.804;2024-02-14T07:05:32;31.45;;;17.27;;
61903;SDS011;47857;52.270;6.804;2024-02-14T07:07:57;28.75;;;16.88;;
61903;SDS011;47857;52.270;6.804;2024-02-14T07:10:23;28.88;;;16.50;;
61903;SDS011;47857;52.270;6.804;2024-02-14T07:12:48;24.10;;;16.08;;
61903;SDS011;47857;52.270;6.804;2024-02-14T07:15:14;24.67;;;16.83;;
61903;SDS011;47857;52.270;6.804;2024-02-14T07:17:40;24.42;;;16.75;;
61903;SDS011;47857;52.270;6.804;2024-02-14T07:20:05;22.55;;;16.60;;
61903;SDS011;47857;52.270;6.804;2024-02-14T07:22:34;23.52;;;15.77;;
61903;SDS011;47857;52.270;6.804;2024-02-14T07:25:00;26.55;;;16.25;;
61903;SDS011;47857;52.270;6.804;2024-02-14T07:27:25;22.52;;;15.57;;
61903;SDS011;47857;52.270;6.804;2024-02-14T07:29:52;25.77;;;15.20;;
61903;SDS011;47857;52.270;6.804;2024-02-14T07:32:17;22.42;;;14.75;;
61903;SDS011;47857;52.270;6.804;2024-02-14T07:34:43;23.30;;;16.02;;
61903;SDS011;47857;52.270;6.804;2024-02-14T07:37:08;25.85;;;16.05;;
61903;SDS011;47857;52.270;6.804;2024-02-14T07:39:34;25.92;;;16.45;;
61903;SDS011;47857;52.270;6.804;2024-02-14T07:42:00;23.70;;;15.63;;
61903;SDS011;47857;52.270;6.804;2024-02-14T07:44:27;23.77;;;15.18;;
61903;SDS011;47857;52.270;6.804;2024-02-14T07:46:52;23.02;;;15.18;;
61903;SDS011;47857;52.270;6.804;2024-02-14T07:49:18;22.77;;;14.90;;
61903;SDS011;47857;52.270;6.804;2024-02-14T07:51:44;22.63;;;14.80;;
61903;SDS011;47857;52.270;6.804;2024-02-14T07:54:10;21.02;;;14.15;;
61903;SDS011;47857;52.270;6.804;2024-02-14T07:56:36;23.17;;;15.30;;
61903;SDS011;47857;52.270;6.804;2024-02-14T07:59:01;22.70;;;14.63;;
61903;SDS011;47857;52.270;6.804;2024-02-14T08:01:27;17.15;;;12.35;;
61903;SDS011;47857;52.270;6.804;2024-02-14T08:03:53;20.25;;;13.40;;
61903;SDS011;47857;52.270;6.804;2024-02-14T08:06:19;17.67;;;12.93;;
61903;SDS011;47857;52.270;6.804;2024-02-14T08:08:45;16.08;;;11.73;;
61903;SDS011;47857;52.270;6.804;2024-02-14T08:11:11;16.65;;;12.07;;
61903;SDS011;47857;52.270;6.804;2024-02-14T08:13:36;15.73;;;12.10;;
61903;SDS011;47857;52.270;6.804;2024-02-14T08:16:04;17.33;;;12.20;;
61903;SDS011;47857;52.270;6.804;2024-02-14T08:18:31;18.38;;;12.35;;
61903;SDS011;47857;52.270;6.804;2024-02-14T08:20:57;16.45;;;11.93;;
61903;SDS011;47857;52.270;6.804;2024-02-14T08:23:22;18.83;;;12.52;;
61903;SDS011;47857;52.270;6.804;2024-02-14T08:25:48;17.85;;;11.25;;
61903;SDS011;47857;52.270;6.804;2024-02-14T08:28:14;16.73;;;12.10;;
61903;SDS011;47857;52.270;6.804;2024-02-14T08:30:40;17.05;;;12.20;;
61903;SDS011;47857;52.270;6.804;2024-02-14T08:33:06;17.17;;;12.38;;
61903;SDS011;47857;52.270;6.804;2024-02-14T08:35:31;16.73;;;12.25;;
61903;SDS011;47857;52.270;6.804;2024-02-14T08:37:58;17.83;;;13.00;;
61903;SDS011;47857;52.270;6.804;2024-02-14T08:40:23;17.65;;;12.32;;
61903;SDS011;47857;52.270;6.804;2024-02-14T08:42:49;16.10;;;12.05;;
61903;SDS011;47857;52.270;6.804;2024-02-14T08:45:14;17.48;;;13.02;;
61903;SDS011;47857;52.270;6.804;2024-02-14T08:47:42;15.90;;;12.40;;
61903;SDS011;47857;52.270;6.804;2024-02-14T08:50:08;16.23;;;12.25;;
61903;SDS011;47857;52.270;6.804;2024-02-14T08:52:34;19.70;;;13.02;;
61903;SDS011;47857;52.270;6.804;2024-02-14T08:55:00;19.48;;;13.50;;
61903;SDS011;47857;52.270;6.804;2024-02-14T08:57:25;17.80;;;13.05;;
61903;SDS011;47857;52.270;6.804;2024-02-14T08:59:51;19.05;;;13.68;;
61903;SDS011;47857;52.270;6.804;2024-02-14T09:02:16;20.00;;;13.82;;
61903;SDS011;47857;52.270;6.804;2024-02-14T09:04:42;19.08;;;13.80;;
61903;SDS011;47857;52.270;6.804;2024-02-14T09:07:08;22.27;;;14.00;;
61903;SDS011;47857;52.270;6.804;2024-02-14T09:09:34;20.30;;;13.80;;
61903;SDS011;47857;52.270;6.804;2024-02-14T09:12:00;18.65;;;14.10;;
61903;SDS011;47857;52.270;6.804;2024-02-14T09:14:29;19.73;;;13.75;;
61903;SDS011;47857;52.270;6.804;2024-02-14T09:16:55;20.17;;;13.93;;
61903;SDS011;47857;52.270;6.804;2024-02-14T09:19:20;18.85;;;14.05;;
61903;SDS011;47857;52.270;6.804;2024-02-14T09:21:46;21.98;;;14.10;;
61903;SDS011;47857;52.270;6.804;2024-02-14T09:24:12;25.23;;;14.07;;
61903;SDS011;47857;52.270;6.804;2024-02-14T09:26:38;23.00;;;15.63;;
61903;SDS011;47857;52.270;6.804;2024-02-14T09:29:03;24.80;;;15.07;;
61903;SDS011;47857;52.270;6.804;2024-02-14T09:31:30;21.25;;;14.35;;
61903;SDS011;47857;52.270;6.804;2024-02-14T09:33:55;22.88;;;15.40;;
61903;SDS011;47857;52.270;6.804;2024-02-14T09:36:23;21.95;;;15.15;;
61903;SDS011;47857;52.270;6.804;2024-02-14T09:38:50;22.75;;;15.48;;
61903;SDS011;47857;52.270;6.804;2024-02-14T09:41:22;22.50;;;14.68;;
61903;SDS011;47857;52.270;6.804;2024-02-14T09:43:52;25.98;;;15.05;;
61903;SDS011;47857;52.270;6.804;2024-02-14T09:46:17;21.33;;;14.32;;
61903;SDS011;47857;52.270;6.804;2024-02-14T09:48:43;25.90;;;14.25;;
61903;SDS011;47857;52.270;6.804;2024-02-14T09:51:10;22.02;;;13.80;;
61903;SDS011;47857;52.270;6.804;2024-02-14T09:53:37;21.95;;;13.95;;
61903;SDS011;47857;52.270;6.804;2024-02-14T09:56:04;19.33;;;14.43;;
61903;SDS011;47857;52.270;6.804;2024-02-14T09:58:30;18.40;;;13.85;;
61903;SDS011;47857;52.270;6.804;2024-02-14T10:01:00;18.30;;;12.52;;
61903;SDS011;47857;52.270;6.804;2024-02-14T10:03:25;14.40;;;11.60;;
61903;SDS011;47857;52.270;6.804;2024-02-14T10:05:51;20.65;;;13.40;;
61903;SDS011;47857;52.270;6.804;2024-02-14T10:08:18;20.05;;;12.73;;
61903;SDS011;47857;52.270;6.804;2024-02-14T10:10:44;22.45;;;12.80;;
61903;SDS011;47857;52.270;6.804;2024-02-14T10:13:09;16.30;;;11.70;;
61903;SDS011;47857;52.270;6.804;2024-02-14T10:15:35;16.83;;;11.82;;
61903;SDS011;47857;52.270;6.804;2024-02-14T10:18:03;18.48;;;11.85;;
61903;SDS011;47857;52.270;6.804;2024-02-14T10:20:29;16.08;;;11.32;;
61903;SDS011;47857;52.270;6.804;2024-02-14T10:23:02;15.70;;;11.80;;
61903;SDS011;47857;52.270;6.804;2024-02-14T10:25:28;15.65;;;11.52;;
61903;SDS011;47857;52.270;6.804;2024-02-14T10:27:54;13.15;;;10.60;;
61903;SDS011;47857;52.270;6.804;2024-02-14T10:30:20;15.40;;;10.85;;
61903;SDS011;47857;52.270;6.804;2024-02-14T10:32:47;14.77;;;11.18;;
61903;SDS011;47857;52.270;6.804;2024-02-14T10:35:15;16.55;;;10.35;;
61903;SDS011;47857;52.270;6.804;2024-02-14T10:37:42;12.77;;;10.40;;
61903;SDS011;47857;52.270;6.804;2024-02-14T10:40:08;14.52;;;9.75;;
61903;SDS011;47857;52.270;6.804;2024-02-14T10:42:34;12.93;;;9.52;;
61903;SDS011;47857;52.270;6.804;2024-02-14T10:45:00;12.02;;;9.20;;
61903;SDS011;47857;52.270;6.804;2024-02-14T10:47:35;10.77;;;9.38;;
61903;SDS011;47857;52.270;6.804;2024-02-14T10:50:05;10.52;;;8.93;;
61903;SDS011;47857;52.270;6.804;2024-02-14T10:52:32;12.82;;;9.55;;
61903;SDS011;47857;52.270;6.804;2024-02-14T10:54:59;11.23;;;8.45;;
61903;SDS011;47857;52.270;6.804;2024-02-14T10:57:28;13.82;;;9.13;;
61903;SDS011;47857;52.270;6.804;2024-02-14T10:59:54;11.57;;;9.13;;
61903;SDS011;47857;52.270;6.804;2024-02-14T11:02:21;12.05;;;9.73;;
61903;SDS011;47857;52.270;6.804;2024-02-14T11:04:47;12.75;;;9.80;;
61903;SDS011;47857;52.270;6.804;2024-02-14T11:07:13;13.18;;;9.77;;
61903;SDS011;47857;52.270;6.804;2024-02-14T11:09:40;12.85;;;9.45;;
61903;SDS011;47857;52.270;6.804;2024-02-14T11:12:08;13.38;;;10.25;;
61903;SDS011;47857;52.270;6.804;2024-02-14T11:14:35;14.68;;;10.38;;
61903;SDS011;47857;52.270;6.804;2024-02-14T11:17:04;12.70;;;10.25;;
61903;SDS011;47857;52.270;6.804;2024-02-14T11:19:34;13.52;;;9.82;;
61903;SDS011;47857;52.270;6.804;2024-02-14T11:22:11;16.08;;;11.30;;
61903;SDS011;47857;52.270;6.804;2024-02-14T11:24:39;13.80;;;10.43;;
61903;SDS011;47857;52.270;6.804;2024-02-14T11:27:09;14.75;;;10.48;;
61903;SDS011;47857;52.270;6.804;2024-02-14T11:29:38;14.30;;;10.57;;
61903;SDS011;47857;52.270;6.804;2024-02-14T11:32:04;14.63;;;10.65;;
61903;SDS011;47857;52.270;6.804;2024-02-14T11:34:33;22.35;;;11.43;;
61903;SDS011;47857;52.270;6.804;2024-02-14T11:36:59;15.07;;;11.90;;
61903;SDS011;47857;52.270;6.804;2024-02-14T11:39:27;19.10;;;11.77;;
61903;SDS011;47857;52.270;6.804;2024-02-14T11:41:53;23.52;;;12.75;;
61903;SDS011;47857;52.270;6.804;2024-02-14T11:44:18;20.45;;;13.50;;
61903;SDS011;47857;52.270;6.804;2024-02-14T11:46:47;20.90;;;13.73;;
61903;SDS011;47857;52.270;6.804;2024-02-14T11:49:12;22.65;;;13.45;;
61903;SDS011;47857;52.270;6.804;2024-02-14T11:51:38;19.75;;;13.27;;
61903;SDS011;47857;52.270;6.804;2024-02-14T11:54:04;21.35;;;13.93;;
61903;SDS011;47857;52.270;6.804;2024-02-14T11:56:37;26.05;;;13.48;;
61903;SDS011;47857;52.270;6.804;2024-02-14T11:59:04;21.92;;;14.52;;
61903;SDS011;47857;52.270;6.804;2024-02-14T12:01:31;19.55;;;14.02;;
61903;SDS011;47857;52.270;6.804;2024-02-14T12:03:58;20.55;;;13.30;;
61903;SDS011;47857;52.270;6.804;2024-02-14T12:06:26;20.58;;;13.30;;
61903;SDS011;47857;52.270;6.804;2024-02-14T12:09:05;21.55;;;13.52;;
61903;SDS011;47857;52.270;6.804;2024-02-14T12:11:31;25.00;;;13.07;;
61903;SDS011;47857;52.270;6.804;2024-02-14T12:14:07;26.02;;;13.77;;
61903;SDS011;47857;52.270;6.804;2024-02-14T12:16:34;18.05;;;13.88;;
61903;SDS011;47857;52.270;6.804;2024-02-14T12:19:03;23.25;;;13.52;;
61903;SDS011;47857;52.270;6.804;2024-02-14T12:21:35;19.10;;;12.43;;
61903;SDS011;47857;52.270;6.804;2024-02-14T12:24:07;19.85;;;13.88;;
61903;SDS011;47857;52.270;6.804;2024-02-14T12:26:34;19.45;;;13.02;;
61903;SDS011;47857;52.270;6.804;2024-02-14T12:29:01;19.95;;;12.48;;
61903;SDS011;47857;52.270;6.804;2024-02-14T12:31:28;18.15;;;12.98;;
61903;SDS011;47857;52.270;6.804;2024-02-14T12:33:56;19.98;;;13.18;;
61903;SDS011;47857;52.270;6.804;2024-02-14T12:36:24;17.73;;;12.70;;
61903;SDS011;47857;52.270;6.804;2024-02-14T12:38:50;22.10;;;12.30;;
61903;SDS011;47857;52.270;6.804;2024-02-14T12:41:18;18.58;;;12.52;;
61903;SDS011;47857;52.270;6.804;2024-02-14T12:43:44;20.95;;;12.38;;
61903;SDS011;47857;52.270;6.804;2024-02-14T12:46:09;19.85;;;12.52;;
61903;SDS011;47857;52.270;6.804;2024-02-14T12:48:35;17.52;;;12.23;;
61903;SDS011;47857;52.270;6.804;2024-02-14T12:51:00;21.38;;;12.55;;
61903;SDS011;47857;52.270;6.804;2024-02-14T12:53:26;19.10;;;11.65;;
61903;SDS011;47857;52.270;6.804;2024-02-14T12:55:51;19.42;;;11.90;;
61903;SDS011;47857;52.270;6.804;2024-02-14T12:58:17;16.23;;;12.10;;
61903;SDS011;47857;52.270;6.804;2024-02-14T13:00:43;16.40;;;11.35;;
61903;SDS011;47857;52.270;6.804;2024-02-14T13:03:10;16.45;;;11.40;;
61903;SDS011;47857;52.270;6.804;2024-02-14T13:05:36;20.25;;;12.82;;
61903;SDS011;47857;52.270;6.804;2024-02-14T13:08:02;15.88;;;12.18;;
61903;SDS011;47857;52.270;6.804;2024-02-14T13:10:28;18.98;;;11.85;;
61903;SDS011;47857;52.270;6.804;2024-02-14T13:12:54;16.00;;;11.73;;
61903;SDS011;47857;52.270;6.804;2024-02-14T13:15:19;15.85;;;11.30;;
61903;SDS011;47857;52.270;6.804;2024-02-14T13:17:45;15.38;;;11.05;;
61903;SDS011;47857;52.270;6.804;2024-02-14T13:20:11;15.88;;;10.70;;
61903;SDS011;47857;52.270;6.804;2024-02-14T13:22:37;17.02;;;10.70;;
61903;SDS011;47857;52.270;6.804;2024-02-14T13:25:03;15.63;;;9.70;;
61903;SDS011;47857;52.270;6.804;2024-02-14T13:27:30;15.27;;;10.05;;
61903;SDS011;47857;52.270;6.804;2024-02-14T13:29:55;14.32;;;9.40;;
61903;SDS011;47857;52.270;6.804;2024-02-14T13:32:21;13.15;;;9.45;;
61903;SDS011;47857;52.270;6.804;2024-02-14T13:34:47;14.07;;;8.73;;
61903;SDS011;47857;52.270;6.804;2024-02-14T13:37:13;14.38;;;8.80;;
61903;SDS011;47857;52.270;6.804;2024-02-14T13:39:39;12.82;;;7.97;;
61903;SDS011;47857;52.270;6.804;2024-02-14T13:42:05;10.00;;;7.68;;
61903;SDS011;47857;52.270;6.804;2024-02-14T13:44:32;10.35;;;7.60;;
61903;SDS011;47857;52.270;6.804;2024-02-14T13:46:58;13.38;;;7.53;;
61903;SDS011;47857;52.270;6.804;2024-02-14T13:49:24;11.48;;;7.25;;
61903;SDS011;47857;52.270;6.804;2024-02-14T13:51:51;11.38;;;7.00;;
61903;SDS011;47857;52.270;6.804;2024-02-14T13:54:20;9.65;;;6.82;;
61903;SDS011;47857;52.270;6.804;2024-02-14T13:56:46;8.10;;;6.40;;
61903;SDS011;47857;52.270;6.804;2024-02-14T13:59:13;13.45;;;6.60;;
61903;SDS011;47857;52.270;6.804;2024-02-14T14:01:39;7.57;;;6.35;;
61903;SDS011;47857;52.270;6.804;2024-02-14T14:04:04;9.15;;;5.97;;
61903;SDS011;47857;52.270;6.804;2024-02-14T14:06:30;9.30;;;6.63;;
61903;SDS011;47857;52.270;6.804;2024-02-14T14:08:56;7.80;;;5.75;;
61903;SDS011;47857;52.270;6.804;2024-02-14T14:11:22;8.77;;;5.60;;
61903;SDS011;47857;52.270;6.804;2024-02-14T14:13:48;8.45;;;6.38;;
61903;SDS011;47857;52.270;6.804;2024-02-14T14:16:14;9.60;;;6.32;;
61903;SDS011;47857;52.270;6.804;2024-02-14T14:18:39;8.15;;;5.97;;
61903;SDS011;47857;52.270;6.804;2024-02-14T14:21:05;8.38;;;5.68;;
61903;SDS011;47857;52.270;6.804;2024-02-14T14:23:31;8.88;;;5.88;;